Lincoln, NE (68529)

11:45 AM CST on January 31, 2015 (GMT -0600)
Wulf weather | Change Station
CLOSE
Current Station
Personal Weather Station
Location: Lincoln, NE
Elevation: 1243 ft
Nearby Weather Stations
Active Advisory: Winter Weather Advisory

Elev 1243 ft 40.85 °N, 96.63 °W | Updated 6 seconds ago

Snow
Snow
34.0 °F
Feels Like 27 °F
N
9.2
Wind Variable Wind from South
Gusts 10.7 mph

Today
High -- | Low -- °F
--% Chance of Precip.
Yesterday
High -- | Low -- °F
Precip. -- in
7:37 AM 5:42 PM
Waxing Gibbous, 90% visible
Pressure 30.12 in
Visibility 2.0 miles
Clouds Overcast 500 ft
Windchill 27 °F
Dew Point 32 °F
Humidity 94%
Rainfall 0.17 in
Snow Depth Not available.
UV 1 out of 12
Pollen .10 out of 12
Air Quality Not available.
Flu Activity Not available.
SPECI KLNK 311740Z 16009KT 2SM -SN BR OVC005 01/00 A3012 RMK AO2 P0002 T00060000

More Conditions Fewer Conditions

Pressure 30.12 in
Visibility 2.0 miles
Clouds Overcast 500 ft
Windchill 27 °F
Dew Point 32 °F
Humidity 94%
Rainfall 0.17 in
Snow Depth Not available.
UV 1 out of 12
Pollen .10 out of 12
Air Quality Not available.
Flu Activity Not available.
SPECI KLNK 311740Z 16009KT 2SM -SN BR OVC005 01/00 A3012 RMK AO2 P0002 T00060000

More Conditions Fewer Conditions

10-Day Weather Forecast

Almanac

Astronomy

Jan. 31, 2015 Rise Set
Actual Time
Civil Twilight
Nautical Twilight
Astronomical Twilight
Moon
Length of Visible Light
Length of Day
Tomorrow will be .
, % of the Moon is Illuminated

Today's Extremes

State Highs State Lows

Community

WunderPhotos

Upload Photos

1,792,136 photos uploaded!

WunderBlogs® & News

Nearby

Air Quality

  Air Quality AQ Index Pollutant
Not available.

Snow Depth

Station Depth Elevation

Earthquake Activity

City Distance Mag. Time & Date
Minimum magnitude displayed is 2.5.

Coastal Water Temperatures

Place Temperature

Nearby Weather Stations